sensor_id;sensor_type;location;lat;lon;timestamp;P1;durP1;ratioP1;P2;durP2;ratioP2
14975;SDS011;7584;60.468;25.126;2023-11-21T00:00:46;3.10;;;1.87;;
14975;SDS011;7584;60.468;25.126;2023-11-21T00:03:12;3.13;;;1.77;;
14975;SDS011;7584;60.468;25.126;2023-11-21T00:05:40;6.27;;;2.20;;
14975;SDS011;7584;60.468;25.126;2023-11-21T00:08:06;4.30;;;1.90;;
14975;SDS011;7584;60.468;25.126;2023-11-21T00:10:31;2.53;;;1.70;;
14975;SDS011;7584;60.468;25.126;2023-11-21T00:12:57;3.73;;;2.10;;
14975;SDS011;7584;60.468;25.126;2023-11-21T00:15:22;3.40;;;2.23;;
14975;SDS011;7584;60.468;25.126;2023-11-21T00:17:47;3.47;;;1.90;;
14975;SDS011;7584;60.468;25.126;2023-11-21T00:20:13;1.87;;;1.63;;
14975;SDS011;7584;60.468;25.126;2023-11-21T00:22:38;2.97;;;1.80;;
14975;SDS011;7584;60.468;25.126;2023-11-21T00:25:05;4.23;;;2.23;;
14975;SDS011;7584;60.468;25.126;2023-11-21T00:27:30;4.70;;;2.00;;
14975;SDS011;7584;60.468;25.126;2023-11-21T00:29:56;3.07;;;1.70;;
14975;SDS011;7584;60.468;25.126;2023-11-21T00:32:21;3.17;;;2.00;;
14975;SDS011;7584;60.468;25.126;2023-11-21T00:34:46;2.67;;;2.10;;
14975;SDS011;7584;60.468;25.126;2023-11-21T00:37:12;3.40;;;1.90;;
14975;SDS011;7584;60.468;25.126;2023-11-21T00:39:37;3.87;;;2.30;;
14975;SDS011;7584;60.468;25.126;2023-11-21T00:42:02;3.10;;;2.00;;
14975;SDS011;7584;60.468;25.126;2023-11-21T00:44:29;2.93;;;2.00;;
14975;SDS011;7584;60.468;25.126;2023-11-21T00:46:55;2.90;;;1.93;;
14975;SDS011;7584;60.468;25.126;2023-11-21T00:49:20;3.17;;;2.13;;
14975;SDS011;7584;60.468;25.126;2023-11-21T00:51:45;4.03;;;2.27;;
14975;SDS011;7584;60.468;25.126;2023-11-21T00:54:11;2.57;;;1.83;;
14975;SDS011;7584;60.468;25.126;2023-11-21T00:56:36;2.93;;;1.73;;
14975;SDS011;7584;60.468;25.126;2023-11-21T00:59:02;5.40;;;2.67;;
14975;SDS011;7584;60.468;25.126;2023-11-21T01:01:29;3.30;;;2.30;;
14975;SDS011;7584;60.468;25.126;2023-11-21T01:03:55;2.97;;;1.80;;
14975;SDS011;7584;60.468;25.126;2023-11-21T01:06:20;5.07;;;2.30;;
14975;SDS011;7584;60.468;25.126;2023-11-21T01:08:46;3.07;;;2.10;;
14975;SDS011;7584;60.468;25.126;2023-11-21T01:11:11;3.30;;;1.90;;
14975;SDS011;7584;60.468;25.126;2023-11-21T01:13:40;3.40;;;1.87;;
14975;SDS011;7584;60.468;25.126;2023-11-21T01:16:05;2.47;;;1.90;;
14975;SDS011;7584;60.468;25.126;2023-11-21T01:18:34;5.77;;;2.30;;
14975;SDS011;7584;60.468;25.126;2023-11-21T01:21:00;3.53;;;2.43;;
14975;SDS011;7584;60.468;25.126;2023-11-21T01:23:25;4.50;;;2.00;;
14975;SDS011;7584;60.468;25.126;2023-11-21T01:25:51;4.20;;;2.17;;
14975;SDS011;7584;60.468;25.126;2023-11-21T01:28:17;3.50;;;2.23;;
14975;SDS011;7584;60.468;25.126;2023-11-21T01:30:42;3.50;;;2.10;;
14975;SDS011;7584;60.468;25.126;2023-11-21T01:33:07;3.30;;;1.93;;
14975;SDS011;7584;60.468;25.126;2023-11-21T01:35:33;2.30;;;1.63;;
14975;SDS011;7584;60.468;25.126;2023-11-21T01:37:59;3.03;;;1.90;;
14975;SDS011;7584;60.468;25.126;2023-11-21T01:40:24;4.00;;;2.00;;
14975;SDS011;7584;60.468;25.126;2023-11-21T01:42:49;3.60;;;2.30;;
14975;SDS011;7584;60.468;25.126;2023-11-21T01:45:15;2.83;;;2.10;;
14975;SDS011;7584;60.468;25.126;2023-11-21T01:47:40;4.17;;;2.20;;
14975;SDS011;7584;60.468;25.126;2023-11-21T01:50:07;3.17;;;2.00;;
14975;SDS011;7584;60.468;25.126;2023-11-21T01:52:33;3.40;;;2.17;;
14975;SDS011;7584;60.468;25.126;2023-11-21T01:54:59;3.10;;;2.00;;
14975;SDS011;7584;60.468;25.126;2023-11-21T01:57:25;3.00;;;1.97;;
14975;SDS011;7584;60.468;25.126;2023-11-21T01:59:50;2.97;;;2.27;;
14975;SDS011;7584;60.468;25.126;2023-11-21T02:02:18;2.47;;;1.80;;
14975;SDS011;7584;60.468;25.126;2023-11-21T02:04:43;3.73;;;2.23;;
14975;SDS011;7584;60.468;25.126;2023-11-21T02:07:08;4.23;;;2.63;;
14975;SDS011;7584;60.468;25.126;2023-11-21T02:09:33;3.13;;;1.87;;
14975;SDS011;7584;60.468;25.126;2023-11-21T02:11:59;3.70;;;2.60;;
14975;SDS011;7584;60.468;25.126;2023-11-21T02:14:25;3.03;;;2.10;;
14975;SDS011;7584;60.468;25.126;2023-11-21T02:16:51;6.07;;;2.50;;
14975;SDS011;7584;60.468;25.126;2023-11-21T02:19:17;3.33;;;2.27;;
14975;SDS011;7584;60.468;25.126;2023-11-21T02:21:54;3.77;;;2.20;;
14975;SDS011;7584;60.468;25.126;2023-11-21T02:24:23;4.17;;;2.63;;
14975;SDS011;7584;60.468;25.126;2023-11-21T02:26:48;3.87;;;1.53;;
14975;SDS011;7584;60.468;25.126;2023-11-21T02:29:16;4.40;;;2.70;;
14975;SDS011;7584;60.468;25.126;2023-11-21T02:31:43;3.90;;;2.20;;
14975;SDS011;7584;60.468;25.126;2023-11-21T02:34:15;2.90;;;1.90;;
14975;SDS011;7584;60.468;25.126;2023-11-21T02:36:40;3.07;;;2.30;;
14975;SDS011;7584;60.468;25.126;2023-11-21T02:39:08;4.33;;;2.47;;
14975;SDS011;7584;60.468;25.126;2023-11-21T02:41:33;4.03;;;2.50;;
14975;SDS011;7584;60.468;25.126;2023-11-21T02:43:59;3.67;;;2.37;;
14975;SDS011;7584;60.468;25.126;2023-11-21T02:46:25;3.27;;;2.30;;
14975;SDS011;7584;60.468;25.126;2023-11-21T02:48:50;4.07;;;2.40;;
14975;SDS011;7584;60.468;25.126;2023-11-21T02:51:16;5.87;;;2.53;;
14975;SDS011;7584;60.468;25.126;2023-11-21T02:53:41;3.33;;;2.57;;
14975;SDS011;7584;60.468;25.126;2023-11-21T02:56:06;3.07;;;2.00;;
14975;SDS011;7584;60.468;25.126;2023-11-21T02:58:32;3.73;;;2.10;;
14975;SDS011;7584;60.468;25.126;2023-11-21T03:00:57;4.07;;;2.50;;
14975;SDS011;7584;60.468;25.126;2023-11-21T03:03:23;4.87;;;3.20;;
14975;SDS011;7584;60.468;25.126;2023-11-21T03:05:49;7.30;;;2.87;;
14975;SDS011;7584;60.468;25.126;2023-11-21T03:08:15;5.07;;;3.47;;
14975;SDS011;7584;60.468;25.126;2023-11-21T03:10:40;4.77;;;3.30;;
14975;SDS011;7584;60.468;25.126;2023-11-21T03:13:05;5.57;;;3.63;;
14975;SDS011;7584;60.468;25.126;2023-11-21T03:15:30;10.60;;;3.23;;
14975;SDS011;7584;60.468;25.126;2023-11-21T03:17:57;6.67;;;3.63;;
14975;SDS011;7584;60.468;25.126;2023-11-21T03:20:22;7.23;;;4.07;;
14975;SDS011;7584;60.468;25.126;2023-11-21T03:22:48;6.30;;;4.20;;
14975;SDS011;7584;60.468;25.126;2023-11-21T03:25:13;5.00;;;3.63;;
14975;SDS011;7584;60.468;25.126;2023-11-21T03:27:38;7.67;;;4.37;;
14975;SDS011;7584;60.468;25.126;2023-11-21T03:30:04;7.70;;;4.53;;
14975;SDS011;7584;60.468;25.126;2023-11-21T03:32:31;9.10;;;4.57;;
14975;SDS011;7584;60.468;25.126;2023-11-21T03:34:58;9.03;;;5.23;;
14975;SDS011;7584;60.468;25.126;2023-11-21T03:37:24;10.73;;;5.33;;
14975;SDS011;7584;60.468;25.126;2023-11-21T03:39:50;8.03;;;5.17;;
14975;SDS011;7584;60.468;25.126;2023-11-21T03:42:15;10.10;;;5.17;;
14975;SDS011;7584;60.468;25.126;2023-11-21T03:44:40;9.77;;;5.70;;
14975;SDS011;7584;60.468;25.126;2023-11-21T03:47:06;9.20;;;5.40;;
14975;SDS011;7584;60.468;25.126;2023-11-21T03:49:31;12.53;;;7.07;;
14975;SDS011;7584;60.468;25.126;2023-11-21T03:51:56;10.23;;;5.83;;
14975;SDS011;7584;60.468;25.126;2023-11-21T03:54:22;11.47;;;5.70;;
14975;SDS011;7584;60.468;25.126;2023-11-21T03:56:47;8.70;;;5.47;;
14975;SDS011;7584;60.468;25.126;2023-11-21T03:59:12;11.37;;;6.27;;
14975;SDS011;7584;60.468;25.126;2023-11-21T04:01:37;10.43;;;5.73;;
14975;SDS011;7584;60.468;25.126;2023-11-21T04:04:03;9.27;;;5.17;;
14975;SDS011;7584;60.468;25.126;2023-11-21T04:06:29;8.90;;;5.53;;
14975;SDS011;7584;60.468;25.126;2023-11-21T04:08:54;12.50;;;5.63;;
14975;SDS011;7584;60.468;25.126;2023-11-21T04:11:20;11.10;;;5.87;;
14975;SDS011;7584;60.468;25.126;2023-11-21T04:13:45;13.80;;;5.57;;
14975;SDS011;7584;60.468;25.126;2023-11-21T04:16:12;10.83;;;5.97;;
14975;SDS011;7584;60.468;25.126;2023-11-21T04:18:38;9.13;;;5.43;;
14975;SDS011;7584;60.468;25.126;2023-11-21T04:21:04;11.23;;;6.67;;
14975;SDS011;7584;60.468;25.126;2023-11-21T04:23:30;9.47;;;5.20;;
14975;SDS011;7584;60.468;25.126;2023-11-21T04:25:56;12.20;;;6.30;;
14975;SDS011;7584;60.468;25.126;2023-11-21T04:28:22;10.37;;;6.10;;
14975;SDS011;7584;60.468;25.126;2023-11-21T04:30:48;11.23;;;6.40;;
14975;SDS011;7584;60.468;25.126;2023-11-21T04:33:13;9.70;;;6.03;;
14975;SDS011;7584;60.468;25.126;2023-11-21T04:35:38;9.50;;;4.93;;
14975;SDS011;7584;60.468;25.126;2023-11-21T04:38:03;12.97;;;5.90;;
14975;SDS011;7584;60.468;25.126;2023-11-21T04:40:29;10.20;;;5.73;;
14975;SDS011;7584;60.468;25.126;2023-11-21T04:42:54;10.63;;;6.57;;
14975;SDS011;7584;60.468;25.126;2023-11-21T04:45:19;10.93;;;5.97;;
14975;SDS011;7584;60.468;25.126;2023-11-21T04:47:44;12.27;;;6.17;;
14975;SDS011;7584;60.468;25.126;2023-11-21T04:50:10;10.27;;;5.57;;
14975;SDS011;7584;60.468;25.126;2023-11-21T04:52:35;12.67;;;6.33;;
14975;SDS011;7584;60.468;25.126;2023-11-21T04:55:01;9.90;;;6.43;;
14975;SDS011;7584;60.468;25.126;2023-11-21T04:57:27;11.47;;;6.50;;
14975;SDS011;7584;60.468;25.126;2023-11-21T04:59:53;12.67;;;5.93;;
14975;SDS011;7584;60.468;25.126;2023-11-21T05:02:19;11.73;;;6.57;;
14975;SDS011;7584;60.468;25.126;2023-11-21T05:04:44;8.00;;;5.00;;
14975;SDS011;7584;60.468;25.126;2023-11-21T05:07:10;9.03;;;5.70;;
14975;SDS011;7584;60.468;25.126;2023-11-21T05:09:35;11.27;;;6.20;;
14975;SDS011;7584;60.468;25.126;2023-11-21T05:12:01;11.00;;;6.30;;
14975;SDS011;7584;60.468;25.126;2023-11-21T05:14:27;11.67;;;6.30;;
14975;SDS011;7584;60.468;25.126;2023-11-21T05:16:52;8.23;;;4.77;;
14975;SDS011;7584;60.468;25.126;2023-11-21T05:19:17;8.87;;;5.27;;
14975;SDS011;7584;60.468;25.126;2023-11-21T05:21:43;9.27;;;5.23;;
14975;SDS011;7584;60.468;25.126;2023-11-21T05:24:08;9.17;;;4.90;;
14975;SDS011;7584;60.468;25.126;2023-11-21T05:26:34;8.13;;;5.07;;
14975;SDS011;7584;60.468;25.126;2023-11-21T05:28:59;9.23;;;5.13;;
14975;SDS011;7584;60.468;25.126;2023-11-21T05:31:25;6.83;;;4.43;;
14975;SDS011;7584;60.468;25.126;2023-11-21T05:33:50;7.37;;;4.87;;
14975;SDS011;7584;60.468;25.126;2023-11-21T05:36:15;7.57;;;4.40;;
14975;SDS011;7584;60.468;25.126;2023-11-21T05:38:40;7.23;;;4.60;;
14975;SDS011;7584;60.468;25.126;2023-11-21T05:41:06;7.60;;;4.50;;
14975;SDS011;7584;60.468;25.126;2023-11-21T05:43:33;8.90;;;4.53;;
14975;SDS011;7584;60.468;25.126;2023-11-21T05:46:00;7.30;;;4.57;;
14975;SDS011;7584;60.468;25.126;2023-11-21T05:48:25;6.43;;;3.97;;
14975;SDS011;7584;60.468;25.126;2023-11-21T05:50:51;9.60;;;4.50;;
14975;SDS011;7584;60.468;25.126;2023-11-21T05:53:17;8.43;;;4.17;;
14975;SDS011;7584;60.468;25.126;2023-11-21T05:55:42;7.30;;;4.43;;
14975;SDS011;7584;60.468;25.126;2023-11-21T05:58:07;6.10;;;3.83;;
14975;SDS011;7584;60.468;25.126;2023-11-21T06:00:33;6.37;;;3.27;;
14975;SDS011;7584;60.468;25.126;2023-11-21T06:02:58;6.63;;;4.13;;
14975;SDS011;7584;60.468;25.126;2023-11-21T06:05:24;5.93;;;4.17;;
14975;SDS011;7584;60.468;25.126;2023-11-21T06:07:51;6.80;;;3.30;;
14975;SDS011;7584;60.468;25.126;2023-11-21T06:10:17;5.43;;;3.50;;
14975;SDS011;7584;60.468;25.126;2023-11-21T06:12:44;5.73;;;3.60;;
14975;SDS011;7584;60.468;25.126;2023-11-21T06:15:10;7.60;;;3.30;;
14975;SDS011;7584;60.468;25.126;2023-11-21T06:17:38;5.27;;;3.27;;
14975;SDS011;7584;60.468;25.126;2023-11-21T06:20:05;5.10;;;3.03;;
14975;SDS011;7584;60.468;25.126;2023-11-21T06:22:37;5.77;;;3.23;;
14975;SDS011;7584;60.468;25.126;2023-11-21T06:25:03;5.47;;;3.07;;
14975;SDS011;7584;60.468;25.126;2023-11-21T06:27:33;4.13;;;2.87;;
14975;SDS011;7584;60.468;25.126;2023-11-21T06:29:59;4.53;;;2.80;;
14975;SDS011;7584;60.468;25.126;2023-11-21T06:32:24;4.53;;;2.70;;
14975;SDS011;7584;60.468;25.126;2023-11-21T06:34:51;4.10;;;2.80;;
14975;SDS011;7584;60.468;25.126;2023-11-21T06:37:19;4.53;;;2.83;;
14975;SDS011;7584;60.468;25.126;2023-11-21T06:39:46;4.40;;;3.20;;
14975;SDS011;7584;60.468;25.126;2023-11-21T06:42:11;5.27;;;2.83;;
14975;SDS011;7584;60.468;25.126;2023-11-21T06:44:36;3.77;;;2.60;;
14975;SDS011;7584;60.468;25.126;2023-11-21T06:47:02;3.87;;;2.63;;
14975;SDS011;7584;60.468;25.126;2023-11-21T06:49:28;5.30;;;3.13;;
14975;SDS011;7584;60.468;25.126;2023-11-21T06:51:53;4.13;;;2.80;;
14975;SDS011;7584;60.468;25.126;2023-11-21T06:54:20;6.87;;;3.33;;
14975;SDS011;7584;60.468;25.126;2023-11-21T06:56:46;7.47;;;3.97;;
14975;SDS011;7584;60.468;25.126;2023-11-21T06:59:11;5.57;;;3.57;;
14975;SDS011;7584;60.468;25.126;2023-11-21T07:01:37;5.27;;;3.03;;
14975;SDS011;7584;60.468;25.126;2023-11-21T07:04:06;4.80;;;3.03;;
14975;SDS011;7584;60.468;25.126;2023-11-21T07:06:32;4.97;;;3.50;;
14975;SDS011;7584;60.468;25.126;2023-11-21T07:08:57;7.13;;;3.40;;
14975;SDS011;7584;60.468;25.126;2023-11-21T07:11:23;6.03;;;3.60;;
14975;SDS011;7584;60.468;25.126;2023-11-21T07:13:48;4.63;;;2.87;;
14975;SDS011;7584;60.468;25.126;2023-11-21T07:16:14;10.43;;;6.60;;
14975;SDS011;7584;60.468;25.126;2023-11-21T07:18:40;6.43;;;4.03;;
14975;SDS011;7584;60.468;25.126;2023-11-21T07:21:06;7.07;;;3.30;;
14975;SDS011;7584;60.468;25.126;2023-11-21T07:23:31;4.47;;;2.83;;
14975;SDS011;7584;60.468;25.126;2023-11-21T07:25:57;6.60;;;3.23;;
14975;SDS011;7584;60.468;25.126;2023-11-21T07:28:23;6.43;;;4.07;;
14975;SDS011;7584;60.468;25.126;2023-11-21T07:30:49;5.80;;;3.70;;
14975;SDS011;7584;60.468;25.126;2023-11-21T07:33:14;13.87;;;3.70;;
14975;SDS011;7584;60.468;25.126;2023-11-21T07:35:39;5.03;;;3.30;;
14975;SDS011;7584;60.468;25.126;2023-11-21T07:38:04;5.60;;;3.70;;
14975;SDS011;7584;60.468;25.126;2023-11-21T07:40:30;7.47;;;3.67;;
14975;SDS011;7584;60.468;25.126;2023-11-21T07:42:55;6.43;;;3.40;;
14975;SDS011;7584;60.468;25.126;2023-11-21T07:45:22;4.80;;;2.87;;
14975;SDS011;7584;60.468;25.126;2023-11-21T07:47:47;5.40;;;3.20;;
14975;SDS011;7584;60.468;25.126;2023-11-21T07:50:13;4.90;;;3.17;;
14975;SDS011;7584;60.468;25.126;2023-11-21T07:52:38;5.83;;;3.37;;
14975;SDS011;7584;60.468;25.126;2023-11-21T07:55:04;7.93;;;3.87;;
14975;SDS011;7584;60.468;25.126;2023-11-21T07:57:30;5.37;;;3.47;;
14975;SDS011;7584;60.468;25.126;2023-11-21T07:59:55;5.73;;;3.27;;
14975;SDS011;7584;60.468;25.126;2023-11-21T08:02:21;7.47;;;3.57;;
14975;SDS011;7584;60.468;25.126;2023-11-21T08:04:46;5.90;;;3.10;;
14975;SDS011;7584;60.468;25.126;2023-11-21T08:07:14;5.60;;;3.17;;
14975;SDS011;7584;60.468;25.126;2023-11-21T08:09:39;5.83;;;3.37;;
14975;SDS011;7584;60.468;25.126;2023-11-21T08:12:05;4.63;;;3.30;;
14975;SDS011;7584;60.468;25.126;2023-11-21T08:14:30;5.00;;;3.27;;
14975;SDS011;7584;60.468;25.126;2023-11-21T08:16:56;5.10;;;3.00;;
14975;SDS011;7584;60.468;25.126;2023-11-21T08:19:23;5.03;;;3.10;;
14975;SDS011;7584;60.468;25.126;2023-11-21T08:21:50;5.03;;;3.33;;
14975;SDS011;7584;60.468;25.126;2023-11-21T08:24:15;7.23;;;3.90;;
14975;SDS011;7584;60.468;25.126;2023-11-21T08:26:41;5.83;;;3.07;;
14975;SDS011;7584;60.468;25.126;2023-11-21T08:29:06;6.87;;;3.03;;
14975;SDS011;7584;60.468;25.126;2023-11-21T08:31:35;6.50;;;3.70;;
14975;SDS011;7584;60.468;25.126;2023-11-21T08:34:01;6.77;;;3.00;;
14975;SDS011;7584;60.468;25.126;2023-11-21T08:36:28;5.53;;;3.17;;
14975;SDS011;7584;60.468;25.126;2023-11-21T08:38:53;6.43;;;3.20;;
14975;SDS011;7584;60.468;25.126;2023-11-21T08:41:18;6.93;;;3.30;;
14975;SDS011;7584;60.468;25.126;2023-11-21T08:43:47;5.00;;;2.80;;
14975;SDS011;7584;60.468;25.126;2023-11-21T08:46:13;5.33;;;3.20;;
14975;SDS011;7584;60.468;25.126;2023-11-21T08:48:38;6.40;;;3.40;;
14975;SDS011;7584;60.468;25.126;2023-11-21T08:51:03;5.70;;;2.90;;
14975;SDS011;7584;60.468;25.126;2023-11-21T08:53:29;7.57;;;3.30;;
14975;SDS011;7584;60.468;25.126;2023-11-21T08:55:56;5.30;;;2.80;;
14975;SDS011;7584;60.468;25.126;2023-11-21T08:58:21;4.50;;;3.03;;
14975;SDS011;7584;60.468;25.126;2023-11-21T09:00:46;7.30;;;3.50;;
14975;SDS011;7584;60.468;25.126;2023-11-21T09:03:12;5.60;;;3.20;;
14975;SDS011;7584;60.468;25.126;2023-11-21T09:05:38;6.20;;;2.83;;
14975;SDS011;7584;60.468;25.126;2023-11-21T09:08:04;5.20;;;2.70;;
14975;SDS011;7584;60.468;25.126;2023-11-21T09:10:29;5.27;;;2.87;;
14975;SDS011;7584;60.468;25.126;2023-11-21T09:12:54;4.67;;;2.87;;
14975;SDS011;7584;60.468;25.126;2023-11-21T09:15:20;5.57;;;3.07;;
14975;SDS011;7584;60.468;25.126;2023-11-21T09:17:45;3.73;;;2.50;;
14975;SDS011;7584;60.468;25.126;2023-11-21T09:20:11;4.83;;;2.87;;
14975;SDS011;7584;60.468;25.126;2023-11-21T09:22:36;3.97;;;2.67;;
14975;SDS011;7584;60.468;25.126;2023-11-21T09:25:02;4.77;;;3.10;;
14975;SDS011;7584;60.468;25.126;2023-11-21T09:27:30;4.50;;;2.70;;
14975;SDS011;7584;60.468;25.126;2023-11-21T09:29:55;3.27;;;2.30;;
14975;SDS011;7584;60.468;25.126;2023-11-21T09:32:20;3.63;;;2.60;;
14975;SDS011;7584;60.468;25.126;2023-11-21T09:34:49;5.63;;;2.33;;
14975;SDS011;7584;60.468;25.126;2023-11-21T09:37:15;3.50;;;2.37;;
14975;SDS011;7584;60.468;25.126;2023-11-21T09:39:40;5.27;;;2.93;;
14975;SDS011;7584;60.468;25.126;2023-11-21T09:42:17;5.53;;;2.50;;
14975;SDS011;7584;60.468;25.126;2023-11-21T09:44:45;4.83;;;2.60;;
14975;SDS011;7584;60.468;25.126;2023-11-21T09:47:14;5.70;;;2.27;;
14975;SDS011;7584;60.468;25.126;2023-11-21T09:49:41;4.20;;;2.57;;
14975;SDS011;7584;60.468;25.126;2023-11-21T09:52:07;5.50;;;3.17;;
14975;SDS011;7584;60.468;25.126;2023-11-21T09:54:34;3.83;;;2.30;;
14975;SDS011;7584;60.468;25.126;2023-11-21T09:57:00;5.07;;;2.40;;
14975;SDS011;7584;60.468;25.126;2023-11-21T09:59:25;4.57;;;2.50;;
14975;SDS011;7584;60.468;25.126;2023-11-21T10:01:55;3.53;;;2.40;;
14975;SDS011;7584;60.468;25.126;2023-11-21T10:04:23;4.10;;;2.47;;
14975;SDS011;7584;60.468;25.126;2023-11-21T10:06:48;3.97;;;2.40;;
14975;SDS011;7584;60.468;25.126;2023-11-21T10:09:15;6.57;;;2.10;;
14975;SDS011;7584;60.468;25.126;2023-11-21T10:11:41;3.40;;;2.20;;
14975;SDS011;7584;60.468;25.126;2023-11-21T10:14:08;3.00;;;2.30;;
14975;SDS011;7584;60.468;25.126;2023-11-21T10:16:35;4.97;;;2.47;;
14975;SDS011;7584;60.468;25.126;2023-11-21T10:19:02;3.93;;;2.07;;
14975;SDS011;7584;60.468;25.126;2023-11-21T10:21:28;3.23;;;2.10;;
14975;SDS011;7584;60.468;25.126;2023-11-21T10:23:54;3.40;;;2.20;;
14975;SDS011;7584;60.468;25.126;2023-11-21T10:26:20;3.43;;;2.57;;
14975;SDS011;7584;60.468;25.126;2023-11-21T10:28:55;3.30;;;2.23;;
14975;SDS011;7584;60.468;25.126;2023-11-21T10:31:21;3.97;;;2.33;;
14975;SDS011;7584;60.468;25.126;2023-11-21T10:33:49;3.93;;;2.53;;
14975;SDS011;7584;60.468;25.126;2023-11-21T10:36:19;4.87;;;2.27;;
14975;SDS011;7584;60.468;25.126;2023-11-21T10:38:49;4.13;;;2.40;;
14975;SDS011;7584;60.468;25.126;2023-11-21T10:41:18;3.80;;;2.73;;
14975;SDS011;7584;60.468;25.126;2023-11-21T10:43:43;6.17;;;3.50;;
14975;SDS011;7584;60.468;25.126;2023-11-21T10:46:09;5.17;;;2.93;;
14975;SDS011;7584;60.468;25.126;2023-11-21T10:48:34;6.43;;;3.33;;
14975;SDS011;7584;60.468;25.126;2023-11-21T10:51:01;6.43;;;3.47;;
14975;SDS011;7584;60.468;25.126;2023-11-21T10:53:31;6.43;;;3.20;;
14975;SDS011;7584;60.468;25.126;2023-11-21T10:56:04;5.40;;;3.23;;
14975;SDS011;7584;60.468;25.126;2023-11-21T10:58:31;5.03;;;2.97;;
14975;SDS011;7584;60.468;25.126;2023-11-21T11:00:57;5.17;;;2.83;;
14975;SDS011;7584;60.468;25.126;2023-11-21T11:03:23;4.33;;;2.93;;
14975;SDS011;7584;60.468;25.126;2023-11-21T11:05:48;4.67;;;3.07;;
14975;SDS011;7584;60.468;25.126;2023-11-21T11:08:16;4.03;;;2.47;;
14975;SDS011;7584;60.468;25.126;2023-11-21T11:10:44;6.37;;;2.67;;
14975;SDS011;7584;60.468;25.126;2023-11-21T11:13:11;5.03;;;3.37;;
14975;SDS011;7584;60.468;25.126;2023-11-21T11:15:40;4.03;;;2.80;;
14975;SDS011;7584;60.468;25.126;2023-11-21T11:18:05;5.67;;;3.27;;
14975;SDS011;7584;60.468;25.126;2023-11-21T11:20:34;5.53;;;2.70;;
14975;SDS011;7584;60.468;25.126;2023-11-21T11:30:28;7.07;;;2.67;;
14975;SDS011;7584;60.468;25.126;2023-11-21T11:33:06;5.00;;;2.73;;
14975;SDS011;7584;60.468;25.126;2023-11-21T11:35:57;4.33;;;2.33;;
14975;SDS011;7584;60.468;25.126;2023-11-21T11:38:23;4.07;;;2.40;;
14975;SDS011;7584;60.468;25.126;2023-11-21T11:40:48;5.27;;;2.70;;
14975;SDS011;7584;60.468;25.126;2023-11-21T11:43:24;5.37;;;2.50;;
14975;SDS011;7584;60.468;25.126;2023-11-21T11:45:50;3.83;;;2.63;;
14975;SDS011;7584;60.468;25.126;2023-11-21T11:48:17;4.17;;;2.10;;
14975;SDS011;7584;60.468;25.126;2023-11-21T11:51:00;3.10;;;1.90;;
14975;SDS011;7584;60.468;25.126;2023-11-21T11:53:28;3.40;;;1.83;;
14975;SDS011;7584;60.468;25.126;2023-11-21T11:55:58;3.83;;;2.30;;
14975;SDS011;7584;60.468;25.126;2023-11-21T11:58:42;2.90;;;1.77;;
14975;SDS011;7584;60.468;25.126;2023-11-21T12:01:08;4.60;;;2.33;;
14975;SDS011;7584;60.468;25.126;2023-11-21T12:03:33;4.50;;;3.40;;
14975;SDS011;7584;60.468;25.126;2023-11-21T12:05:58;4.73;;;1.80;;
14975;SDS011;7584;60.468;25.126;2023-11-21T12:08:25;2.93;;;2.00;;
14975;SDS011;7584;60.468;25.126;2023-11-21T12:10:56;5.57;;;1.63;;
14975;SDS011;7584;60.468;25.126;2023-11-21T12:13:22;4.00;;;2.40;;
14975;SDS011;7584;60.468;25.126;2023-11-21T12:15:48;2.70;;;1.90;;
14975;SDS011;7584;60.468;25.126;2023-11-21T12:18:13;3.13;;;2.20;;
14975;SDS011;7584;60.468;25.126;2023-11-21T12:20:39;5.27;;;2.10;;
14975;SDS011;7584;60.468;25.126;2023-11-21T12:23:06;3.20;;;2.10;;
14975;SDS011;7584;60.468;25.126;2023-11-21T12:25:31;4.17;;;2.50;;
14975;SDS011;7584;60.468;25.126;2023-11-21T12:27:58;4.83;;;2.47;;
14975;SDS011;7584;60.468;25.126;2023-11-21T12:30:25;6.27;;;2.53;;
14975;SDS011;7584;60.468;25.126;2023-11-21T12:32:53;5.17;;;2.80;;
14975;SDS011;7584;60.468;25.126;2023-11-21T12:35:21;4.70;;;3.00;;
14975;SDS011;7584;60.468;25.126;2023-11-21T12:37:47;4.10;;;2.97;;
14975;SDS011;7584;60.468;25.126;2023-11-21T12:40:13;4.17;;;2.53;;
14975;SDS011;7584;60.468;25.126;2023-11-21T12:42:42;5.27;;;2.70;;
14975;SDS011;7584;60.468;25.126;2023-11-21T12:45:08;5.97;;;3.00;;
14975;SDS011;7584;60.468;25.126;2023-11-21T12:47:34;3.77;;;2.40;;
14975;SDS011;7584;60.468;25.126;2023-11-21T12:50:00;3.97;;;2.47;;
14975;SDS011;7584;60.468;25.126;2023-11-21T12:52:27;5.20;;;2.43;;
14975;SDS011;7584;60.468;25.126;2023-11-21T12:54:53;6.10;;;2.53;;
14975;SDS011;7584;60.468;25.126;2023-11-21T12:57:18;4.23;;;2.40;;
14975;SDS011;7584;60.468;25.126;2023-11-21T12:59:45;5.37;;;2.70;;
14975;SDS011;7584;60.468;25.126;2023-11-21T13:02:12;5.97;;;2.90;;
14975;SDS011;7584;60.468;25.126;2023-11-21T13:04:39;5.77;;;3.10;;
14975;SDS011;7584;60.468;25.126;2023-11-21T13:07:04;4.37;;;2.60;;
14975;SDS011;7584;60.468;25.126;2023-11-21T13:09:39;4.50;;;2.87;;
14975;SDS011;7584;60.468;25.126;2023-11-21T13:12:04;4.13;;;2.60;;
14975;SDS011;7584;60.468;25.126;2023-11-21T13:14:33;3.23;;;2.37;;
14975;SDS011;7584;60.468;25.126;2023-11-21T13:16:59;5.07;;;2.53;;
14975;SDS011;7584;60.468;25.126;2023-11-21T13:19:24;6.10;;;2.80;;
14975;SDS011;7584;60.468;25.126;2023-11-21T13:21:49;5.90;;;2.70;;
14975;SDS011;7584;60.468;25.126;2023-11-21T13:24:15;5.27;;;2.70;;
14975;SDS011;7584;60.468;25.126;2023-11-21T13:26:41;4.27;;;2.70;;
14975;SDS011;7584;60.468;25.126;2023-11-21T13:29:07;5.87;;;3.00;;
14975;SDS011;7584;60.468;25.126;2023-11-21T13:31:33;6.53;;;2.70;;
14975;SDS011;7584;60.468;25.126;2023-11-21T13:34:01;7.27;;;2.70;;
14975;SDS011;7584;60.468;25.126;2023-11-21T13:36:30;4.07;;;2.67;;
14975;SDS011;7584;60.468;25.126;2023-11-21T13:38:58;6.83;;;2.57;;
14975;SDS011;7584;60.468;25.126;2023-11-21T13:41:33;7.60;;;3.03;;
14975;SDS011;7584;60.468;25.126;2023-11-21T13:43:58;4.83;;;2.40;;
14975;SDS011;7584;60.468;25.126;2023-11-21T13:46:34;3.87;;;2.50;;
14975;SDS011;7584;60.468;25.126;2023-11-21T13:49:02;5.37;;;2.43;;
14975;SDS011;7584;60.468;25.126;2023-11-21T13:51:27;5.40;;;2.80;;
14975;SDS011;7584;60.468;25.126;2023-11-21T13:54:02;6.07;;;3.13;;
14975;SDS011;7584;60.468;25.126;2023-11-21T13:56:30;8.17;;;2.53;;
14975;SDS011;7584;60.468;25.126;2023-11-21T13:58:56;2.23;;;1.87;;
14975;SDS011;7584;60.468;25.126;2023-11-21T14:01:24;5.10;;;2.50;;
14975;SDS011;7584;60.468;25.126;2023-11-21T14:03:50;7.37;;;2.87;;
14975;SDS011;7584;60.468;25.126;2023-11-21T14:06:21;5.53;;;2.50;;
14975;SDS011;7584;60.468;25.126;2023-11-21T14:08:52;4.20;;;2.60;;
14975;SDS011;7584;60.468;25.126;2023-11-21T14:11:21;6.17;;;3.13;;
14975;SDS011;7584;60.468;25.126;2023-11-21T14:13:47;6.20;;;3.20;;
14975;SDS011;7584;60.468;25.126;2023-11-21T14:16:13;6.47;;;3.37;;
14975;SDS011;7584;60.468;25.126;2023-11-21T14:18:39;10.20;;;3.30;;
14975;SDS011;7584;60.468;25.126;2023-11-21T14:21:15;10.17;;;3.30;;
14975;SDS011;7584;60.468;25.126;2023-11-21T14:23:41;8.73;;;3.17;;
14975;SDS011;7584;60.468;25.126;2023-11-21T14:26:06;8.77;;;3.40;;
14975;SDS011;7584;60.468;25.126;2023-11-21T14:28:32;8.20;;;3.17;;
14975;SDS011;7584;60.468;25.126;2023-11-21T14:31:00;8.90;;;3.30;;
14975;SDS011;7584;60.468;25.126;2023-11-21T14:33:25;6.30;;;3.60;;
14975;SDS011;7584;60.468;25.126;2023-11-21T14:35:50;12.63;;;4.97;;
14975;SDS011;7584;60.468;25.126;2023-11-21T14:38:16;7.47;;;4.70;;
14975;SDS011;7584;60.468;25.126;2023-11-21T14:40:41;9.90;;;4.17;;
14975;SDS011;7584;60.468;25.126;2023-11-21T14:43:06;9.83;;;4.90;;
14975;SDS011;7584;60.468;25.126;2023-11-21T14:45:32;6.60;;;3.93;;
14975;SDS011;7584;60.468;25.126;2023-11-21T14:47:57;6.27;;;4.10;;